Terminal Aerodrome Forecast
Issued by NWS Charleston, WV

Current Version | Previous Version | Text Only | Print | Product List | Glossary Off
Versions: 1 2 3 4 5 6 7 8 9 10 11 12 13 14 15 16 17 18 19 20 21 22 23 24

000
FTUS41 KRLX 260500 RRA
TAFHTS
TAF
KHTS 260545Z 2606/2706 02004KT P6SM OVC110
     FM262000 34004KT P6SM BKN035
     FM262100 34004KT P6SM BKN025
     FM270000 33005KT P6SM BKN015=

USA.gov is the U.S. government's official web portal to all federal, state and local government web resources and services.